Time;durP1;ratioP1;P1;durP2;ratioP2;P2;SDS_P1;SDS_P2;PMS_P1;PMS_P2;Temp;Humidity;BMP_temperature;BMP_pressure;BME280_temperature;BME280_humidity;BME280_pressure;Samples;Min_cycle;Max_cycle;Signal;HPM_P1;HPM_P2
2023/06/14 04:07:29;;;;;;;;;;;;;;;22.56;33.25;96261.06;4264321;27;10418;-63
2023/06/14 04:09:32;;;;;;;;;;;;;;;22.82;32.92;96263.53;4243178;27;5661;-63
2023/06/14 04:11:35;;;;;;;;;;;;;;;23.05;32.72;96256.59;4248545;27;5727;-62
2023/06/14 04:13:39;;;;;;;;;;;;;;;23.22;32.44;96263.16;4248670;27;5781;-63
2023/06/14 04:15:43;;;;;;;;;;;;;;;23.37;32.59;96270.28;4248835;27;5964;-64
2023/06/14 04:17:46;;;;;;;;;;;;;;;23.49;32.56;96277.97;4245822;27;5762;-63
2023/06/14 04:19:49;;;;;;;;;;;;;;;23.58;32.12;96275.44;4231851;28;6435;-63
2023/06/14 04:21:52;;;;;;;;;;;;;;;23.65;32.09;96279.41;4244026;27;5654;-63
2023/06/14 04:23:56;;;;;;;;;;;;;;;23.71;31.95;96275.56;4248736;27;5758;-63
2023/06/14 04:26:02;;;;;;;;;;;;;;;23.75;32.06;96279.28;4243404;27;5963;-63
2023/06/14 04:28:05;;;;;;;;;;;;;;;23.80;32.30;96279.25;4236696;27;5687;-63
2023/06/14 04:30:11;;;;;;;;;;;;;;;23.84;31.73;96289.44;4248417;27;5729;-63
2023/06/14 04:32:14;;;;;;;;;;;;;;;23.88;31.77;96285.06;4237636;27;5709;-63
2023/06/14 04:34:17;;;;;;;;;;;;;;;23.89;32.19;96281.28;4247253;27;5834;-63
2023/06/14 04:36:21;;;;;;;;;;;;;;;23.92;32.00;96283.41;4240452;27;5684;-63
2023/06/14 04:38:25;;;;;;;;;;;;;;;23.91;31.69;96281.81;4239549;27;5671;-63
2023/06/14 04:40:29;;;;;;;;;;;;;;;23.92;32.11;96288.81;4239824;27;5657;-63
2023/06/14 04:42:32;;;;;;;;;;;;;;;23.90;31.89;96289.09;4240532;27;5643;-63
2023/06/14 04:44:35;;;;;;;;;;;;;;;23.90;31.55;96289.09;4245487;27;5675;-63
2023/06/14 04:46:45;;;;;;;;;;;;;;;23.92;31.41;96289.59;4245785;27;5666;-62
2023/06/14 04:48:50;;;;;;;;;;;;;;;23.91;31.68;96292.59;4230190;27;5675;-67
2023/06/14 04:50:53;;;;;;;;;;;;;;;23.90;31.78;96293.66;4233312;27;5655;-67
2023/06/14 04:52:56;;;;;;;;;;;;;;;23.92;31.37;96296.91;4237602;27;5688;-70
2023/06/14 04:54:59;;;;;;;;;;;;;;;23.92;31.35;96294.22;4238690;27;6352;-70
2023/06/14 04:57:05;;;;;;;;;;;;;;;23.92;31.25;96297.72;4238777;27;6101;-68
2023/06/14 04:59:08;;;;;;;;;;;;;;;23.95;31.59;96299.00;4243091;27;5650;-68
2023/06/14 05:01:12;;;;;;;;;;;;;;;23.97;31.28;96291.44;4247258;27;5650;-66
2023/06/14 05:03:15;;;;;;;;;;;;;;;23.97;31.53;96300.31;4240100;27;5730;-62
2023/06/14 05:05:20;;;;;;;;;;;;;;;23.99;31.58;96294.63;4241812;27;6335;-64
2023/06/14 05:07:24;;;;;;;;;;;;;;;24.00;31.15;96307.03;4235048;27;5725;-65
2023/06/14 05:09:26;;;;;;;;;;;;;;;24.01;31.08;96301.38;4232827;28;5655;-65
2023/06/14 05:11:29;;;;;;;;;;;;;;;24.01;31.43;96303.25;4231754;28;5667;-73
2023/06/14 05:13:34;;;;;;;;;;;;;;;23.99;31.10;96303.53;4224086;28;5240;-79
2023/06/14 05:15:37;;;;;;;;;;;;;;;24.01;31.04;96300.53;4230993;28;5764;-72
2023/06/14 05:17:40;;;;;;;;;;;;;;;24.04;31.21;96311.59;4234118;28;5638;-78
2023/06/14 05:19:43;;;;;;;;;;;;;;;24.07;31.32;96302.09;4226237;28;5830;-69
2023/06/14 05:21:47;;;;;;;;;;;;;;;24.10;31.41;96309.59;4233310;28;5721;-68
2023/06/14 05:23:50;;;;;;;;;;;;;;;24.15;31.51;96306.03;4245379;27;5629;-70
2023/06/14 05:25:53;;;;;;;;;;;;;;;24.20;31.25;96301.38;4240522;27;5642;-71
2023/06/14 05:27:56;;;;;;;;;;;;;;;24.30;31.26;96306.66;4227864;27;5693;-70
2023/06/14 05:30:01;;;;;;;;;;;;;;;24.39;30.93;96302.19;4228315;28;5659;-71
2023/06/14 05:32:04;;;;;;;;;;;;;;;24.50;31.49;96307.44;4231470;28;5671;-70
2023/06/14 05:34:07;;;;;;;;;;;;;;;24.61;31.32;96303.50;4227906;28;6043;-74
2023/06/14 05:36:10;;;;;;;;;;;;;;;24.75;30.96;96303.53;4219147;28;5767;-71
2023/06/14 05:38:13;;;;;;;;;;;;;;;24.83;30.93;96309.09;4224679;28;5745;-70
2023/06/14 05:40:17;;;;;;;;;;;;;;;24.92;31.09;96311.91;4235775;28;5654;-68
2023/06/14 05:42:20;;;;;;;;;;;;;;;24.97;30.95;96315.31;4231015;28;5758;-72
2023/06/14 05:44:23;;;;;;;;;;;;;;;25.03;30.87;96309.84;4217861;28;5683;-70
2023/06/14 05:46:28;;;;;;;;;;;;;;;25.07;31.26;96313.59;4226079;28;5667;-72
2023/06/14 05:48:31;;;;;;;;;;;;;;;25.12;31.24;96313.47;4220183;28;5675;-76
2023/06/14 05:50:35;;;;;;;;;;;;;;;25.14;31.11;96316.69;4221664;28;6364;-81
2023/06/14 05:52:38;;;;;;;;;;;;;;;25.17;31.00;96313.41;4238221;28;5740;-89
2023/06/14 05:54:41;;;;;;;;;;;;;;;25.22;31.51;96324.13;4228549;27;5667;-78
2023/06/14 05:56:44;;;;;;;;;;;;;;;25.26;31.32;96325.16;4233981;27;5753;-72
2023/06/14 05:58:48;;;;;;;;;;;;;;;25.29;31.22;96323.75;4230329;27;5710;-71
2023/06/14 06:00:53;;;;;;;;;;;;;;;25.32;31.42;96323.13;4230595;28;5675;-71
2023/06/14 06:02:57;;;;;;;;;;;;;;;25.36;31.37;96324.94;4226103;28;5658;-70
2023/06/14 06:05:00;;;;;;;;;;;;;;;25.38;31.13;96322.75;4235422;28;5653;-70
2023/06/14 06:07:05;;;;;;;;;;;;;;;25.42;31.39;96334.56;4234839;28;6347;-69
2023/06/14 06:09:08;;;;;;;;;;;;;;;25.45;31.73;96328.56;4231646;28;5733;-71
2023/06/14 06:11:11;;;;;;;;;;;;;;;25.50;31.63;96331.19;4231912;27;5654;-72
2023/06/14 06:13:14;;;;;;;;;;;;;;;25.53;31.22;96329.78;4234134;27;5766;-72
2023/06/14 06:15:18;;;;;;;;;;;;;;;25.58;31.55;96337.78;4232428;28;5853;-72
2023/06/14 06:17:22;;;;;;;;;;;;;;;25.65;31.27;96337.41;4228749;28;5638;-72
2023/06/14 06:19:26;;;;;;;;;;;;;;;25.69;31.25;96344.63;4229489;27;5664;-72
2023/06/14 06:21:29;;;;;;;;;;;;;;;25.74;31.16;96341.06;4222315;28;5096;-71
2023/06/14 06:23:32;;;;;;;;;;;;;;;25.79;31.43;96338.22;4228101;28;5699;-72
2023/06/14 06:25:35;;;;;;;;;;;;;;;25.85;30.99;96347.88;4225952;28;5104;-71
2023/06/14 06:27:40;;;;;;;;;;;;;;;25.89;31.27;96345.34;4233537;28;5646;-72
2023/06/14 06:29:44;;;;;;;;;;;;;;;25.92;31.31;96344.75;4228291;28;5778;-72
2023/06/14 06:31:47;;;;;;;;;;;;;;;25.93;31.11;96344.44;4227109;28;5781;-72
2023/06/14 06:33:50;;;;;;;;;;;;;;;25.92;31.18;96339.31;4231833;28;5658;-72
2023/06/14 06:35:54;;;;;;;;;;;;;;;25.94;30.95;96348.78;4229133;28;5691;-72
2023/06/14 06:37:57;;;;;;;;;;;;;;;25.94;30.90;96346.06;4223301;28;5848;-72
2023/06/14 06:40:00;;;;;;;;;;;;;;;25.95;30.84;96352.28;4235165;27;5649;-71
2023/06/14 06:42:03;;;;;;;;;;;;;;;25.94;30.84;96343.34;4231702;28;5654;-72
2023/06/14 06:44:06;;;;;;;;;;;;;;;25.92;31.13;96353.66;4234804;28;5758;-72
2023/06/14 06:46:09;;;;;;;;;;;;;;;25.90;30.80;96352.38;4235287;27;5666;-72
2023/06/14 06:48:12;;;;;;;;;;;;;;;25.91;30.91;96349.34;4228559;28;5687;-69
2023/06/14 06:50:15;;;;;;;;;;;;;;;25.91;31.29;96345.84;4224710;28;5842;-71
2023/06/14 06:52:19;;;;;;;;;;;;;;;25.90;30.90;96347.75;4230652;28;5885;-67
2023/06/14 06:54:22;;;;;;;;;;;;;;;25.92;30.94;96345.53;4218424;27;5775;-71
2023/06/14 06:56:25;;;;;;;;;;;;;;;25.95;31.10;96350.38;4218520;28;5698;-76
2023/06/14 06:58:28;;;;;;;;;;;;;;;25.96;30.86;96348.47;4227620;28;5746;-75
2023/06/14 07:00:33;;;;;;;;;;;;;;;25.95;30.95;96355.78;4225254;28;5687;-70
2023/06/14 07:02:37;;;;;;;;;;;;;;;25.95;31.31;96347.66;4228374;28;5721;-70
2023/06/14 07:04:40;;;;;;;;;;;;;;;25.95;31.25;96349.56;4234055;27;5849;-71
2023/06/14 07:06:43;;;;;;;;;;;;;;;25.89;31.36;96354.28;4225877;28;5641;-70
2023/06/14 07:08:49;;;;;;;;;;;;;;;25.82;31.16;96353.88;4228402;28;5721;-70
2023/06/14 07:10:52;;;;;;;;;;;;;;;25.76;31.38;96358.59;4223352;28;5817;-69
2023/06/14 07:12:55;;;;;;;;;;;;;;;25.73;31.25;96355.69;4227803;28;5657;-67
2023/06/14 07:14:58;;;;;;;;;;;;;;;25.69;31.75;96360.06;4221888;28;5664;-73
2023/06/14 07:17:01;;;;;;;;;;;;;;;25.67;31.55;96359.56;4227594;28;6343;-68
2023/06/14 07:19:05;;;;;;;;;;;;;;;25.63;31.46;96353.16;4225838;28;6529;-73
2023/06/14 07:21:08;;;;;;;;;;;;;;;25.54;31.43;96353.84;4227104;28;5730;-72
2023/06/14 07:23:11;;;;;;;;;;;;;;;25.49;31.78;96361.25;4226254;28;5746;-66
2023/06/14 07:25:15;;;;;;;;;;;;;;;25.48;31.44;96355.03;4232297;28;5721;-66
2023/06/14 07:27:19;;;;;;;;;;;;;;;25.47;31.70;96366.16;4225654;28;7367;-67
2023/06/14 07:29:22;;;;;;;;;;;;;;;25.46;31.29;96364.53;4232202;28;5745;-70
2023/06/14 07:31:26;;;;;;;;;;;;;;;25.45;31.55;96368.34;4226866;28;5638;-67
2023/06/14 07:33:29;;;;;;;;;;;;;;;25.44;31.79;96364.03;4230991;28;5731;-64
2023/06/14 07:35:32;;;;;;;;;;;;;;;25.29;31.76;96375.16;4232945;28;5785;-66
2023/06/14 07:37:36;;;;;;;;;;;;;;;25.12;31.80;96375.69;4229548;28;5638;-68
2023/06/14 07:39:39;;;;;;;;;;;;;;;25.01;31.72;96375.06;4229747;28;5671;-69
2023/06/14 07:41:43;;;;;;;;;;;;;;;24.97;31.74;96369.41;4226317;28;5666;-69
2023/06/14 07:43:46;;;;;;;;;;;;;;;25.07;31.53;96375.78;4231590;28;5675;-69
2023/06/14 07:45:49;;;;;;;;;;;;;;;25.13;31.64;96369.19;4231000;28;5736;-69
2023/06/14 07:48:05;;;;;;;;;;;;;;;25.15;31.66;96375.91;4228052;28;5664;-68
2023/06/14 07:50:09;;;;;;;;;;;;;;;25.14;31.17;96387.00;4224022;28;5721;-70
2023/06/14 07:52:13;;;;;;;;;;;;;;;25.13;31.64;96369.97;4225359;28;5670;-69
2023/06/14 07:54:16;;;;;;;;;;;;;;;25.13;31.22;96374.59;4218969;28;5775;-70
2023/06/14 07:56:19;;;;;;;;;;;;;;;25.15;30.99;96372.41;4230212;28;5669;-68
2023/06/14 07:58:23;;;;;;;;;;;;;;;25.16;31.36;96374.81;4229663;28;5653;-68
2023/06/14 08:00:26;;;;;;;;;;;;;;;25.16;31.37;96374.00;4234256;27;5647;-68
2023/06/14 08:02:30;;;;;;;;;;;;;;;25.10;31.36;96364.38;4234402;28;5657;-69
2023/06/14 08:04:33;;;;;;;;;;;;;;;25.10;31.41;96367.88;4231176;28;6388;-69
2023/06/14 08:06:37;;;;;;;;;;;;;;;25.13;31.67;96369.19;4227791;28;5650;-68
2023/06/14 08:08:42;;;;;;;;;;;;;;;25.15;31.03;96361.59;4230080;28;5757;-72
2023/06/14 08:10:45;;;;;;;;;;;;;;;25.17;31.05;96362.91;4234759;28;5725;-71
2023/06/14 08:12:49;;;;;;;;;;;;;;;25.18;31.20;96363.69;4219469;28;5684;-75
2023/06/14 08:14:54;;;;;;;;;;;;;;;25.21;31.13;96365.81;4231974;28;5665;-77
2023/06/14 08:17:15;;;;;;;;;;;;;;;25.22;31.65;96367.41;4235796;28;5654;-81
2023/06/14 08:19:19;;;;;;;;;;;;;;;25.21;31.35;96366.59;4221692;28;5817;-69
2023/06/14 08:21:22;;;;;;;;;;;;;;;25.19;31.51;96373.41;4217731;28;5773;-70
2023/06/14 08:23:25;;;;;;;;;;;;;;;25.17;31.60;96375.63;4230387;28;5674;-70
2023/06/14 08:25:29;;;;;;;;;;;;;;;25.16;31.30;96377.53;4233763;28;5783;-69
2023/06/14 08:27:31;;;;;;;;;;;;;;;25.18;31.83;96382.63;4223565;28;5727;-70
2023/06/14 08:29:35;;;;;;;;;;;;;;;25.18;31.67;96380.72;4230895;28;5766;-69
2023/06/14 08:31:39;;;;;;;;;;;;;;;25.19;31.96;96379.63;4232909;28;5665;-70
2023/06/14 08:33:43;;;;;;;;;;;;;;;25.18;32.05;96388.84;4224478;28;5676;-70
2023/06/14 08:35:46;;;;;;;;;;;;;;;25.18;32.04;96382.63;4234109;28;5654;-70
2023/06/14 08:37:50;;;;;;;;;;;;;;;25.19;32.22;96386.94;4229924;28;5650;-69
2023/06/14 08:39:53;;;;;;;;;;;;;;;25.20;32.19;96386.63;4220650;28;5754;-69
2023/06/14 08:41:58;;;;;;;;;;;;;;;25.21;31.97;96382.03;4220061;28;5769;-69
2023/06/14 08:44:01;;;;;;;;;;;;;;;25.23;32.18;96385.25;4236928;27;5658;-69
2023/06/14 08:46:08;;;;;;;;;;;;;;;25.22;32.55;96379.03;4236621;28;5666;-68
2023/06/14 08:48:17;;;;;;;;;;;;;;;25.22;32.34;96379.03;4227110;28;5732;-65
2023/06/14 08:50:23;;;;;;;;;;;;;;;25.25;32.75;96383.03;4225478;28;5638;-72
2023/06/14 08:52:40;;;;;;;;;;;;;;;25.27;32.42;96375.44;4236827;27;5659;-69
2023/06/14 08:54:44;;;;;;;;;;;;;;;25.29;32.43;96383.25;4236971;28;5740;-68
2023/06/14 08:56:48;;;;;;;;;;;;;;;25.29;32.72;96384.06;4235574;28;5885;-67
2023/06/14 08:58:51;;;;;;;;;;;;;;;25.30;32.53;96384.88;4234475;28;5838;-68
2023/06/14 09:00:54;;;;;;;;;;;;;;;25.29;32.76;96389.47;4235754;28;5663;-66
2023/06/14 09:02:58;;;;;;;;;;;;;;;25.26;32.54;96387.38;4235593;28;5748;-67
2023/06/14 09:05:03;;;;;;;;;;;;;;;25.25;32.54;96386.53;4235232;27;5773;-68
2023/06/14 09:07:07;;;;;;;;;;;;;;;25.26;32.70;96390.06;4234955;28;6494;-67
2023/06/14 09:09:11;;;;;;;;;;;;;;;25.27;32.78;96388.97;4237144;27;5108;-67
2023/06/14 09:11:14;;;;;;;;;;;;;;;25.26;32.66;96384.66;4235863;27;5955;-67
2023/06/14 09:13:18;;;;;;;;;;;;;;;25.28;32.80;96382.47;4233221;28;5662;-64
2023/06/14 09:15:24;;;;;;;;;;;;;;;25.30;32.59;96385.66;4235314;28;5677;-65
2023/06/14 09:17:27;;;;;;;;;;;;;;;25.32;32.91;96382.66;4227159;28;5658;-64
2023/06/14 09:19:30;;;;;;;;;;;;;;;25.32;32.71;96386.16;4233365;28;5973;-63
2023/06/14 09:21:37;;;;;;;;;;;;;;;25.32;32.52;96383.47;4236596;28;5732;-69
2023/06/14 09:23:42;;;;;;;;;;;;;;;25.35;32.63;96382.84;4235334;27;5635;-61
2023/06/14 09:25:47;;;;;;;;;;;;;;;25.37;32.47;96390.69;4230694;28;5739;-62
2023/06/14 09:27:50;;;;;;;;;;;;;;;25.38;32.69;96387.69;4229906;28;5724;-62
2023/06/14 09:29:52;;;;;;;;;;;;;;;25.39;32.96;96385.78;4226675;27;6360;-62
2023/06/14 09:31:56;;;;;;;;;;;;;;;25.38;32.68;96381.50;4226406;28;5728;-64
2023/06/14 09:34:03;;;;;;;;;;;;;;;25.38;32.93;96381.50;4233395;28;5682;-65
2023/06/14 09:36:11;;;;;;;;;;;;;;;25.36;32.94;96379.06;4227720;28;5675;-63
2023/06/14 09:38:16;;;;;;;;;;;;;;;25.38;32.64;96381.50;4226152;28;5745;-63
2023/06/14 09:40:22;;;;;;;;;;;;;;;25.40;32.90;96388.19;4233099;27;5646;-64
2023/06/14 09:42:25;;;;;;;;;;;;;;;25.40;32.83;96382.78;4234841;28;5643;-67
2023/06/14 09:44:29;;;;;;;;;;;;;;;25.41;32.92;96384.38;4235077;28;5682;-67
2023/06/14 09:46:33;;;;;;;;;;;;;;;25.42;32.57;96388.69;4223353;28;5742;-67
2023/06/14 09:48:36;;;;;;;;;;;;;;;25.42;32.48;96388.69;4234456;28;5638;-67
2023/06/14 09:50:40;;;;;;;;;;;;;;;25.38;32.83;96382.28;4219605;28;5687;-69
2023/06/14 09:52:45;;;;;;;;;;;;;;;25.39;32.88;96386.59;4233592;28;5646;-70
2023/06/14 09:54:50;;;;;;;;;;;;;;;25.40;33.01;96384.69;4226022;28;6340;-69
2023/06/14 09:56:53;;;;;;;;;;;;;;;25.40;32.89;96382.00;4230605;28;5819;-67
2023/06/14 09:58:58;;;;;;;;;;;;;;;25.40;33.10;96380.09;4224426;27;5675;-68
2023/06/14 10:01:13;;;;;;;;;;;;;;;25.41;32.91;96384.38;4227149;28;5650;-68
2023/06/14 10:03:22;;;;;;;;;;;;;;;25.43;33.17;96382.19;4231178;28;5646;-72
2023/06/14 10:05:29;;;;;;;;;;;;;;;25.45;33.06;96387.28;4220555;28;5688;-72
2023/06/14 10:07:39;;;;;;;;;;;;;;;25.47;33.10;96388.59;4227550;28;5634;-68
2023/06/14 10:09:48;;;;;;;;;;;;;;;25.50;33.09;96388.03;4225970;28;5144;-68
2023/06/14 10:11:53;;;;;;;;;;;;;;;25.50;32.66;96388.03;4222654;28;5682;-67
2023/06/14 10:13:59;;;;;;;;;;;;;;;25.50;32.93;96393.44;4223857;28;5667;-68
2023/06/14 10:16:10;;;;;;;;;;;;;;;25.50;32.80;96388.03;4224213;28;5796;-68
2023/06/14 10:18:24;;;;;;;;;;;;;;;25.51;32.74;96386.91;4223686;28;5654;-67
2023/06/14 10:20:33;;;;;;;;;;;;;;;25.51;32.88;96392.31;4232445;28;5658;-67
2023/06/14 10:22:39;;;;;;;;;;;;;;;25.53;32.83;96394.72;4232454;28;5749;-67
2023/06/14 10:24:43;;;;;;;;;;;;;;;25.57;33.06;96375.97;4227306;28;5960;-67
2023/06/14 10:26:57;;;;;;;;;;;;;;;25.58;32.83;96378.38;4223348;27;5838;-66
2023/06/14 10:29:08;;;;;;;;;;;;;;;25.61;32.85;96379.72;4226658;28;5700;-66
2023/06/14 10:31:13;;;;;;;;;;;;;;;25.63;33.06;96382.91;4217966;28;5671;-66
2023/06/14 10:33:16;;;;;;;;;;;;;;;25.63;32.72;96382.91;4225389;28;5653;-68
2023/06/14 10:35:19;;;;;;;;;;;;;;;25.61;33.06;96385.94;4219108;28;5826;-66
2023/06/14 10:37:22;;;;;;;;;;;;;;;25.61;33.18;96379.72;4218499;28;7725;-66
2023/06/14 10:39:25;;;;;;;;;;;;;;;25.62;32.72;96386.72;4221752;28;5663;-66
2023/06/14 10:41:30;;;;;;;;;;;;;;;25.62;32.98;96386.72;4230296;28;5687;-66
2023/06/14 10:43:34;;;;;;;;;;;;;;;25.62;32.87;96382.13;4226819;28;5650;-67
2023/06/14 10:45:37;;;;;;;;;;;;;;;25.62;32.91;96381.31;4231357;28;5650;-66
2023/06/14 10:47:40;;;;;;;;;;;;;;;25.61;33.04;96377.81;4228004;28;5802;-67
2023/06/14 10:49:45;;;;;;;;;;;;;;;25.62;32.81;96381.31;4225985;28;5667;-65
2023/06/14 10:51:52;;;;;;;;;;;;;;;25.63;33.05;96377.50;4231675;28;5821;-66
2023/06/14 10:54:00;;;;;;;;;;;;;;;25.65;33.19;96375.31;4221613;28;5664;-66
2023/06/14 10:56:07;;;;;;;;;;;;;;;25.69;33.10;96374.41;4223781;27;5817;-67
2023/06/14 10:58:10;;;;;;;;;;;;;;;25.66;33.01;96369.59;4231962;28;5662;-66
2023/06/14 11:00:22;;;;;;;;;;;;;;;25.66;32.83;96382.31;4230090;27;5669;-66
2023/06/14 11:02:54;;;;;;;;;;;;;;;25.64;33.15;96371.00;4224882;28;5689;-67
2023/06/14 11:05:06;;;;;;;;;;;;;;;25.64;33.16;96376.41;4224899;28;5646;-67
2023/06/14 11:07:31;;;;;;;;;;;;;;;25.64;33.13;96373.69;4219765;28;5675;-67
2023/06/14 11:10:07;;;;;;;;;;;;;;;25.66;33.18;96374.19;4227630;28;5649;-66
2023/06/14 11:12:12;;;;;;;;;;;;;;;25.68;33.24;96374.69;4224704;27;5747;-66
2023/06/14 11:14:15;;;;;;;;;;;;;;;25.65;33.04;96370.69;4231799;27;5667;-66
2023/06/14 11:16:19;;;;;;;;;;;;;;;25.65;32.81;96369.88;4230894;28;5699;-67
2023/06/14 11:18:24;;;;;;;;;;;;;;;25.64;32.93;96369.09;4219510;28;5731;-66
2023/06/14 11:20:27;;;;;;;;;;;;;;;25.65;32.93;96364.47;4232322;28;5669;-66
2023/06/14 11:22:39;;;;;;;;;;;;;;;25.66;33.19;96366.88;4231078;28;5670;-66
2023/06/14 11:24:43;;;;;;;;;;;;;;;25.66;32.92;96368.78;4232450;27;5801;-66
2023/06/14 11:26:48;;;;;;;;;;;;;;;25.67;32.76;96363.06;4226787;28;5667;-66
2023/06/14 11:28:57;;;;;;;;;;;;;;;25.70;32.83;96367.09;4223106;28;5757;-66
2023/06/14 11:31:04;;;;;;;;;;;;;;;25.74;33.11;96365.41;4229224;28;5828;-66
2023/06/14 11:33:11;;;;;;;;;;;;;;;25.76;32.93;96365.91;4228155;28;5809;-66
2023/06/14 11:35:14;;;;;;;;;;;;;;;25.78;32.98;96363.69;4232816;28;6473;-66
2023/06/14 11:37:18;;;;;;;;;;;;;;;25.80;32.86;96366.91;4231891;28;5678;-67
2023/06/14 11:39:26;;;;;;;;;;;;;;;25.81;32.94;96368.50;4222104;28;5646;-67
2023/06/14 11:41:34;;;;;;;;;;;;;;;25.83;32.93;96363.63;4222146;28;5638;-67
2023/06/14 11:43:37;;;;;;;;;;;;;;;25.85;32.78;96357.91;4225777;28;5646;-67
2023/06/14 11:45:40;;;;;;;;;;;;;;;25.87;32.90;96355.69;4231110;28;5769;-67
2023/06/14 11:47:43;;;;;;;;;;;;;;;25.86;32.62;96360.31;4232904;28;5729;-66
2023/06/14 11:49:48;;;;;;;;;;;;;;;25.85;32.76;96363.31;4227715;28;5762;-66
2023/06/14 11:51:54;;;;;;;;;;;;;;;25.85;32.78;96353.28;4233184;28;5642;-66
2023/06/14 11:53:58;;;;;;;;;;;;;;;25.85;32.90;96352.47;4233659;28;5755;-66
2023/06/14 11:56:02;;;;;;;;;;;;;;;25.87;32.74;96351.06;4220991;27;5852;-67
2023/06/14 11:58:05;;;;;;;;;;;;;;;25.88;33.01;96349.97;4228864;28;5671;-66
2023/06/14 12:00:12;;;;;;;;;;;;;;;25.89;33.00;96354.28;4225999;28;5830;-66
2023/06/14 12:02:16;;;;;;;;;;;;;;;25.89;32.65;96346.16;4228558;28;5796;-66
2023/06/14 12:04:25;;;;;;;;;;;;;;;25.92;32.78;96342.03;4230526;28;5823;-66
2023/06/14 12:06:32;;;;;;;;;;;;;;;25.94;32.52;96340.66;4226615;28;5709;-66
2023/06/14 12:08:39;;;;;;;;;;;;;;;25.94;32.38;96346.06;4229979;28;5647;-66
2023/06/14 12:10:43;;;;;;;;;;;;;;;25.96;32.37;96348.47;4225986;28;5157;-66
2023/06/14 12:12:46;;;;;;;;;;;;;;;25.96;32.67;96349.28;4218880;28;5675;-66
2023/06/14 12:14:50;;;;;;;;;;;;;;;25.97;32.49;96342.75;4227713;28;5780;-66
2023/06/14 12:17:05;;;;;;;;;;;;;;;25.98;32.34;96338.13;4226419;28;5650;-66
2023/06/14 12:19:11;;;;;;;;;;;;;;;25.97;32.36;96340.03;4228078;28;5646;-65
2023/06/14 12:21:16;;;;;;;;;;;;;;;25.99;32.36;96340.53;4234553;28;5626;-66
2023/06/14 12:23:20;;;;;;;;;;;;;;;25.99;32.52;96332.41;4229026;28;5635;-67
2023/06/14 12:25:32;;;;;;;;;;;;;;;26.02;32.31;96341.81;4235142;28;5721;-66
2023/06/14 12:27:36;;;;;;;;;;;;;;;26.04;32.60;96340.41;4231148;28;5112;-66
2023/06/14 12:29:39;;;;;;;;;;;;;;;26.03;32.50;96333.41;4228903;28;5725;-67
2023/06/14 12:31:42;;;;;;;;;;;;;;;26.03;32.64;96341.53;4225975;28;5668;-66
2023/06/14 12:33:48;;;;;;;;;;;;;;;26.03;32.68;96329.88;4227422;28;5748;-66
2023/06/14 12:35:54;;;;;;;;;;;;;;;26.05;32.73;96333.13;4230459;28;5658;-66
2023/06/14 12:37:57;;;;;;;;;;;;;;;26.04;32.17;96336.91;4234014;28;5733;-67
2023/06/14 12:40:05;;;;;;;;;;;;;;;26.03;32.24;96333.41;4227795;28;5686;-68
2023/06/14 12:42:09;;;;;;;;;;;;;;;26.05;32.17;96336.63;4230379;28;5749;-66
2023/06/14 12:44:12;;;;;;;;;;;;;;;26.08;32.54;96335.22;4226765;28;5642;-67
2023/06/14 12:46:15;;;;;;;;;;;;;;;26.10;32.28;96333.00;4231737;27;6943;-67
2023/06/14 12:48:18;;;;;;;;;;;;;;;26.11;32.11;96323.75;4228561;27;5099;-67
2023/06/14 12:50:21;;;;;;;;;;;;;;;26.12;32.10;96326.16;4232750;28;5631;-66
2023/06/14 12:52:28;;;;;;;;;;;;;;;26.10;32.37;96331.09;4227855;28;5662;-67
2023/06/14 12:54:31;;;;;;;;;;;;;;;26.11;32.28;96334.59;4227339;28;5699;-66
2023/06/14 12:56:44;;;;;;;;;;;;;;;26.10;32.22;96333.78;4222675;28;5672;-67
2023/06/14 12:58:47;;;;;;;;;;;;;;;26.11;32.54;96340.00;4225347;28;5808;-66
2023/06/14 13:00:50;;;;;;;;;;;;;;;26.12;32.13;96331.56;4225097;28;5837;-67
2023/06/14 13:02:54;;;;;;;;;;;;;;;26.12;32.16;96337.00;4226001;28;5756;-66
2023/06/14 13:04:58;;;;;;;;;;;;;;;26.12;32.31;96333.50;4234776;28;5136;-67
2023/06/14 13:07:01;;;;;;;;;;;;;;;26.11;31.97;96335.41;4231910;28;5778;-66
2023/06/14 13:09:04;;;;;;;;;;;;;;;26.12;32.45;96323.47;4234249;28;5674;-67
2023/06/14 13:11:07;;;;;;;;;;;;;;;26.13;32.12;96335.88;4233666;28;6050;-66
2023/06/14 13:13:13;;;;;;;;;;;;;;;26.13;31.92;96338.59;4232486;28;5654;-66
2023/06/14 13:15:16;;;;;;;;;;;;;;;26.15;31.98;96329.38;4228863;27;5748;-66
2023/06/14 13:17:19;;;;;;;;;;;;;;;26.15;31.92;96335.59;4233983;27;5642;-66
2023/06/14 13:19:23;;;;;;;;;;;;;;;26.17;32.02;96336.09;4232673;27;5642;-66
2023/06/14 13:21:26;;;;;;;;;;;;;;;26.18;31.75;96334.19;4231817;28;5661;-66
2023/06/14 13:23:29;;;;;;;;;;;;;;;26.18;32.11;96345.03;4231213;28;7418;-67
2023/06/14 13:25:32;;;;;;;;;;;;;;;26.17;31.90;96338.81;4229100;28;5889;-67
2023/06/14 13:27:35;;;;;;;;;;;;;;;26.18;32.05;96335.00;4234239;27;5654;-66
2023/06/14 13:29:40;;;;;;;;;;;;;;;26.18;31.96;96331.50;4232970;28;5732;-67
2023/06/14 13:31:43;;;;;;;;;;;;;;;26.19;31.72;96324.97;4226535;28;5724;-67
2023/06/14 13:33:46;;;;;;;;;;;;;;;26.20;31.58;96331.97;4220776;28;5777;-68
2023/06/14 13:35:49;;;;;;;;;;;;;;;26.20;31.93;96337.41;4224244;28;5750;-67
2023/06/14 13:37:52;;;;;;;;;;;;;;;26.21;31.85;96331.66;4225650;27;5766;-67
2023/06/14 13:39:55;;;;;;;;;;;;;;;26.20;31.63;96327.38;4227137;28;5138;-68
2023/06/14 13:41:58;;;;;;;;;;;;;;;26.21;31.96;96330.88;4229056;28;5738;-65
2023/06/14 13:44:03;;;;;;;;;;;;;;;26.22;31.93;96332.47;4224834;28;5679;-67
2023/06/14 13:46:08;;;;;;;;;;;;;;;26.22;32.04;96324.34;4225195;28;7738;-67
2023/06/14 13:48:11;;;;;;;;;;;;;;;26.21;31.74;96323.53;4226304;28;5643;-66
2023/06/14 13:50:15;;;;;;;;;;;;;;;26.23;31.89;96334.06;4228274;27;5709;-66
2023/06/14 13:52:18;;;;;;;;;;;;;;;26.24;31.81;96327.53;4228456;28;5842;-66
2023/06/14 13:54:22;;;;;;;;;;;;;;;26.22;31.76;96325.16;4218845;28;6006;-66
2023/06/14 13:56:26;;;;;;;;;;;;;;;26.23;31.68;96332.16;4217696;28;5683;-66
2023/06/14 13:58:29;;;;;;;;;;;;;;;26.22;31.50;96324.34;4231097;28;5658;-67
2023/06/14 14:00:32;;;;;;;;;;;;;;;26.23;31.78;96324.03;4221198;28;5749;-66
2023/06/14 14:02:36;;;;;;;;;;;;;;;26.23;31.76;96323.25;4223773;27;5758;-66
2023/06/14 14:04:40;;;;;;;;;;;;;;;26.24;31.59;96322.13;4227507;28;5642;-67
2023/06/14 14:06:43;;;;;;;;;;;;;;;26.24;31.69;96322.13;4227603;28;5714;-67
2023/06/14 14:08:49;;;;;;;;;;;;;;;26.29;31.71;96324.75;4227243;27;6649;-67
2023/06/14 14:10:53;;;;;;;;;;;;;;;26.31;31.65;96333.38;4220976;28;5966;-66
2023/06/14 14:12:56;;;;;;;;;;;;;;;26.34;31.85;96327.31;4227812;28;5722;-65
2023/06/14 14:14:59;;;;;;;;;;;;;;;26.35;31.47;96326.22;4226412;28;5679;-66
2023/06/14 14:17:02;;;;;;;;;;;;;;;26.34;31.44;96321.91;4222275;28;5654;-66
2023/06/14 14:19:07;;;;;;;;;;;;;;;26.34;31.96;96322.72;4234115;28;5725;-66
2023/06/14 14:21:10;;;;;;;;;;;;;;;26.35;31.98;96335.16;4225529;27;5725;-66
2023/06/14 14:23:16;;;;;;;;;;;;;;;26.34;31.90;96327.31;4234247;28;6372;-66
2023/06/14 14:25:19;;;;;;;;;;;;;;;26.35;31.75;96328.94;4226069;28;5803;-66
2023/06/14 14:27:22;;;;;;;;;;;;;;;26.35;31.43;96328.94;4225070;28;5805;-67
2023/06/14 14:29:25;;;;;;;;;;;;;;;26.36;31.64;96333.25;4234063;28;5732;-67
2023/06/14 14:31:29;;;;;;;;;;;;;;;26.34;31.38;96322.72;4232142;28;5642;-67
2023/06/14 14:33:34;;;;;;;;;;;;;;;26.34;31.33;96320.00;4218633;28;5763;-67
2023/06/14 14:35:39;;;;;;;;;;;;;;;26.33;31.24;96325.72;4224710;28;5073;-67
2023/06/14 14:37:42;;;;;;;;;;;;;;;26.35;31.26;96320.78;4216889;28;5671;-66
2023/06/14 14:39:45;;;;;;;;;;;;;;;26.36;30.92;96331.34;4230571;28;5777;-66
2023/06/14 14:41:48;;;;;;;;;;;;;;;26.39;31.13;96321.84;4233585;28;5809;-66
2023/06/14 14:43:51;;;;;;;;;;;;;;;26.39;30.70;96309.09;4229661;28;5754;-67
2023/06/14 14:45:54;;;;;;;;;;;;;;;26.44;29.94;96305.44;4221463;27;5659;-67
2023/06/14 14:47:57;;;;;;;;;;;;;;;26.47;29.88;96307.53;4216621;28;5696;-67
2023/06/14 14:50:00;;;;;;;;;;;;;;;26.50;29.53;96312.34;4223312;28;5671;-66
2023/06/14 14:52:05;;;;;;;;;;;;;;;26.51;29.36;96307.75;4225339;28;5667;-66
2023/06/14 14:54:25;;;;;;;;;;;;;;;26.50;29.75;96301.50;4233460;28;5824;-67
2023/06/14 14:56:28;;;;;;;;;;;;;;;26.48;29.49;96311.84;4219803;28;5671;-67
2023/06/14 14:58:31;;;;;;;;;;;;;;;26.49;29.15;96318.88;4216435;28;5675;-66
2023/06/14 15:00:34;;;;;;;;;;;;;;;26.48;29.19;96311.03;4216577;28;5671;-67
2023/06/14 15:02:37;;;;;;;;;;;;;;;26.47;29.43;96315.66;4216495;28;5767;-67
2023/06/14 15:04:40;;;;;;;;;;;;;;;26.47;29.34;96315.66;4225048;28;5765;-67